createdAt,value
2022-09-25T00:00:59.590Z,82.57
2022-09-25T00:03:43.447Z,82.17
2022-09-25T00:06:16.368Z,82.13
2022-09-25T00:08:43.746Z,82.05
2022-09-25T00:11:13.516Z,81.96
2022-09-25T00:13:41.923Z,81.48
2022-09-25T00:16:14.807Z,81.55
2022-09-25T00:19:01.305Z,81.92
2022-09-25T00:21:31.324Z,82.11
2022-09-25T00:24:00.948Z,82.08
2022-09-25T00:26:29.757Z,81.77
2022-09-25T00:28:57.845Z,82.14
2022-09-25T00:31:25.152Z,82.17
2022-09-25T00:33:52.538Z,82.35
2022-09-25T00:36:20.053Z,82.30
2022-09-25T00:38:48.496Z,82.57
2022-09-25T00:41:18.204Z,82.19
2022-09-25T00:43:48.849Z,82.32
2022-09-25T00:46:42.633Z,82.94
2022-09-25T00:49:09.931Z,83.03
2022-09-25T00:51:54.613Z,83.04
2022-09-25T00:54:21.852Z,83.23
2022-09-25T00:56:51.551Z,83.86
2022-09-25T00:59:27.604Z,83.79
2022-09-25T01:01:55.601Z,83.44
2022-09-25T01:04:23.253Z,83.49
2022-09-25T01:06:50.900Z,83.37
2022-09-25T01:09:18.968Z,82.78
2022-09-25T01:11:46.239Z,82.28
2022-09-25T01:14:17.457Z,82.48
2022-09-25T01:17:01.051Z,82.63
2022-09-25T01:19:46.863Z,82.56
2022-09-25T01:22:44.430Z,82.50
2022-09-25T01:25:36.337Z,82.66
2022-09-25T01:28:37.165Z,82.92
2022-09-25T01:31:13.463Z,82.79
2022-09-25T01:33:46.721Z,82.85
2022-09-25T01:36:33.901Z,83.42
2022-09-25T01:39:11.141Z,83.39
2022-09-25T01:41:42.034Z,83.72
2022-09-25T01:44:31.845Z,83.89
2022-09-25T01:47:11.419Z,83.74
2022-09-25T01:50:00.814Z,83.51
2022-09-25T01:52:35.790Z,83.68
2022-09-25T01:55:20.143Z,83.65
2022-09-25T01:57:53.598Z,83.53
2022-09-25T02:00:23.165Z,83.58
2022-09-25T02:02:55.857Z,83.64
2022-09-25T02:05:31.031Z,83.76
2022-09-25T02:08:05.422Z,83.58
2022-09-25T02:10:55.968Z,83.69
2022-09-25T02:13:27.030Z,83.93
2022-09-25T02:15:57.459Z,84.04
2022-09-25T02:18:43.925Z,84.08
2022-09-25T02:21:37.412Z,84.28
2022-09-25T02:24:20.937Z,84.56
2022-09-25T02:26:48.744Z,84.75
2022-09-25T02:29:15.948Z,85.06
2022-09-25T02:31:53.941Z,85.20
2022-09-25T02:34:22.306Z,85.31
2022-09-25T02:36:49.398Z,85.29
2022-09-25T02:39:19.087Z,85.52
2022-09-25T02:42:18.359Z,85.49
2022-09-25T02:45:10.018Z,85.48
2022-09-25T02:47:47.706Z,85.55
2022-09-25T02:50:20.643Z,85.34
2022-09-25T02:53:23.693Z,85.48
2022-09-25T02:56:05.422Z,85.38
2022-09-25T02:58:37.745Z,85.47
2022-09-25T03:01:08.275Z,85.59
2022-09-25T03:03:38.322Z,85.49
2022-09-25T03:06:07.927Z,85.42
2022-09-25T03:08:38.136Z,85.51
2022-09-25T03:11:08.114Z,85.53
2022-09-25T03:13:35.825Z,85.65
2022-09-25T03:16:08.614Z,85.89
2022-09-25T03:18:35.708Z,86.21
2022-09-25T03:21:04.226Z,86.25
2022-09-25T03:23:32.402Z,86.00
2022-09-25T03:25:59.766Z,85.75
2022-09-25T03:28:27.265Z,85.62
2022-09-25T03:31:02.416Z,85.86
2022-09-25T03:33:33.386Z,85.74
2022-09-25T03:36:02.292Z,85.91
2022-09-25T03:38:29.082Z,85.84
2022-09-25T03:40:56.135Z,85.98
2022-09-25T03:43:23.070Z,86.22
2022-09-25T03:45:49.968Z,86.17
2022-09-25T03:48:17.775Z,86.19
2022-09-25T03:50:46.213Z,86.21
2022-09-25T03:53:13.002Z,86.42
2022-09-25T03:55:40.006Z,86.42
2022-09-25T03:58:06.849Z,86.43
2022-09-25T04:00:33.831Z,86.53
2022-09-25T04:03:01.160Z,86.52
2022-09-25T04:05:28.000Z,86.48
2022-09-25T04:07:54.931Z,86.41
2022-09-25T04:10:22.079Z,86.25
2022-09-25T04:12:53.241Z,86.19
2022-09-25T04:15:24.208Z,85.97
2022-09-25T04:17:55.049Z,85.94
2022-09-25T04:20:22.544Z,86.01
2022-09-25T04:22:49.477Z,86.29
2022-09-25T04:25:19.556Z,86.30
2022-09-25T04:27:50.389Z,86.16
2022-09-25T04:30:17.449Z,86.04
2022-09-25T04:33:02.745Z,85.99
2022-09-25T04:35:29.754Z,85.93
2022-09-25T04:37:56.563Z,85.81
2022-09-25T04:40:23.400Z,85.37
2022-09-25T04:42:58.921Z,85.31
2022-09-25T04:45:26.789Z,85.22
2022-09-25T04:47:54.537Z,85.00
2022-09-25T04:50:25.591Z,85.09
2022-09-25T04:52:52.900Z,84.84
2022-09-25T04:55:24.816Z,84.88
2022-09-25T04:57:59.780Z,84.84
2022-09-25T05:00:29.954Z,84.73
2022-09-25T05:02:57.245Z,84.59
2022-09-25T05:05:28.407Z,84.32
2022-09-25T05:07:57.423Z,84.40
2022-09-25T05:10:30.315Z,84.58
2022-09-25T05:13:02.607Z,84.62
2022-09-25T05:15:31.849Z,84.30
2022-09-25T05:18:15.270Z,83.96
2022-09-25T05:20:42.071Z,84.04
2022-09-25T05:23:09.528Z,83.77
2022-09-25T05:25:36.510Z,83.59
2022-09-25T05:28:03.408Z,83.83
2022-09-25T05:30:33.305Z,83.51
2022-09-25T05:33:00.272Z,83.44
2022-09-25T05:35:29.522Z,83.13
2022-09-25T05:37:56.702Z,82.99
2022-09-25T05:40:24.226Z,83.37
2022-09-25T05:42:52.209Z,82.25
2022-09-25T05:45:21.490Z,83.07
2022-09-25T05:47:48.349Z,83.03
2022-09-25T05:50:16.970Z,83.26
2022-09-25T05:52:44.000Z,83.06
2022-09-25T05:55:11.485Z,83.26
2022-09-25T05:57:39.023Z,83.04
2022-09-25T06:00:11.651Z,82.31
2022-09-25T06:02:41.453Z,82.42
2022-09-25T06:05:10.091Z,82.62
2022-09-25T06:07:37.357Z,82.31
2022-09-25T06:10:04.523Z,82.27
2022-09-25T06:12:31.983Z,81.93
2022-09-25T06:14:59.025Z,82.19
2022-09-25T06:17:25.853Z,81.73
2022-09-25T06:19:52.866Z,81.43
2022-09-25T06:22:20.041Z,81.14
2022-09-25T06:24:48.750Z,80.81
2022-09-25T06:27:15.925Z,80.72
2022-09-25T06:29:42.750Z,81.24
2022-09-25T06:32:09.615Z,80.47
2022-09-25T06:34:36.654Z,80.62
2022-09-25T06:37:03.508Z,79.88
2022-09-25T06:39:33.264Z,79.46
2022-09-25T06:42:00.342Z,80.11
2022-09-25T06:44:28.289Z,79.83
2022-09-25T06:46:55.200Z,79.92
2022-09-25T06:49:22.495Z,79.10
2022-09-25T06:51:51.114Z,78.20
2022-09-25T06:54:18.211Z,77.51
2022-09-25T06:56:49.506Z,77.48
2022-09-25T06:59:17.125Z,77.44
2022-09-25T07:01:44.022Z,76.55
2022-09-25T07:04:11.371Z,76.38
2022-09-25T07:06:38.340Z,75.92
2022-09-25T07:09:05.475Z,75.28
2022-09-25T07:11:32.572Z,75.88
2022-09-25T07:13:59.650Z,75.61
2022-09-25T07:16:28.798Z,75.48
2022-09-25T07:18:58.502Z,75.42
2022-09-25T07:21:27.806Z,75.65
2022-09-25T07:23:54.761Z,75.79
2022-09-25T07:26:25.278Z,75.72
2022-09-25T07:28:55.234Z,75.67
2022-09-25T07:31:26.136Z,75.70
2022-09-25T07:33:53.722Z,75.60
2022-09-25T07:36:21.006Z,74.77
2022-09-25T07:38:52.441Z,74.35
2022-09-25T07:41:22.266Z,74.32
2022-09-25T07:44:17.673Z,73.80
2022-09-25T07:46:44.517Z,73.80
2022-09-25T07:49:12.172Z,74.05
2022-09-25T07:51:39.306Z,74.53
2022-09-25T07:54:06.871Z,74.72
2022-09-25T07:56:38.385Z,74.75
2022-09-25T07:59:05.506Z,74.83
2022-09-25T08:01:32.703Z,74.93
2022-09-25T08:03:59.967Z,74.94
2022-09-25T08:06:26.770Z,74.81
2022-09-25T08:08:53.673Z,75.08
2022-09-25T08:11:20.683Z,74.33
2022-09-25T08:13:47.556Z,74.14
2022-09-25T08:16:17.525Z,74.14
2022-09-25T08:18:46.812Z,73.92
2022-09-25T08:21:19.246Z,73.70
2022-09-25T08:23:52.531Z,72.57
2022-09-25T08:26:21.522Z,73.08
2022-09-25T08:28:50.697Z,71.96
2022-09-25T08:31:17.960Z,72.08
2022-09-25T08:33:46.552Z,71.29
2022-09-25T08:36:14.313Z,71.16
2022-09-25T08:38:41.217Z,71.73
2022-09-25T08:41:15.179Z,71.84
2022-09-25T08:43:49.505Z,71.65
2022-09-25T08:46:59.280Z,71.06
2022-09-25T08:49:30.833Z,69.84
2022-09-25T08:52:02.931Z,70.14
2022-09-25T08:54:32.420Z,70.12
2022-09-25T08:57:08.780Z,70.48
2022-09-25T08:59:39.203Z,70.40
2022-09-25T09:02:19.667Z,70.62
2022-09-25T09:04:56.920Z,70.50
2022-09-25T09:07:29.886Z,70.31
2022-09-25T09:10:11.063Z,70.39
2022-09-25T09:12:44.749Z,70.43
2022-09-25T09:15:39.146Z,71.01
2022-09-25T09:18:18.981Z,71.15
2022-09-25T09:20:58.508Z,71.24
2022-09-25T09:23:34.393Z,70.98
2022-09-25T09:26:03.099Z,70.90
2022-09-25T09:28:56.808Z,71.17
2022-09-25T09:31:51.689Z,70.95
2022-09-25T09:35:01.298Z,70.83
2022-09-25T09:37:50.449Z,70.54
2022-09-25T09:40:47.273Z,70.21
2022-09-25T09:43:23.137Z,69.92
2022-09-25T09:46:15.391Z,69.41
2022-09-25T09:49:06.989Z,68.88
2022-09-25T09:51:54.184Z,68.69
2022-09-25T09:54:30.133Z,68.12
2022-09-25T09:56:57.858Z,68.25
2022-09-25T09:59:31.549Z,68.25
2022-09-25T10:02:03.295Z,67.98
2022-09-25T10:04:36.216Z,67.98
2022-09-25T10:07:13.715Z,67.98
2022-09-25T10:09:40.775Z,68.13
2022-09-25T10:12:15.215Z,68.61
2022-09-25T10:14:45.840Z,68.32
2022-09-25T10:17:12.905Z,67.08
2022-09-25T10:19:54.223Z,66.90
2022-09-25T10:22:26.005Z,66.83
2022-09-25T10:25:01.983Z,66.68
2022-09-25T10:27:46.363Z,66.65
2022-09-25T10:30:20.430Z,66.04
2022-09-25T10:33:01.278Z,64.69
2022-09-25T10:35:41.602Z,63.85
2022-09-25T10:38:39.304Z,63.00
2022-09-25T10:41:12.220Z,63.33
2022-09-25T10:43:55.420Z,63.05
2022-09-25T10:46:52.598Z,62.70
2022-09-25T10:49:43.775Z,62.40
2022-09-25T10:52:16.131Z,62.37
2022-09-25T10:54:45.569Z,61.10
2022-09-25T10:57:38.452Z,61.61
2022-09-25T11:00:27.051Z,58.34
2022-09-25T11:03:00.902Z,58.77
2022-09-25T11:05:31.847Z,59.63
2022-09-25T11:08:02.793Z,57.25
2022-09-25T11:10:36.290Z,56.58
2022-09-25T11:13:28.558Z,57.33
2022-09-25T11:16:01.106Z,55.45
2022-09-25T11:18:45.625Z,54.69
2022-09-25T11:21:49.226Z,53.86
2022-09-25T11:24:26.546Z,53.77
2022-09-25T11:27:18.402Z,54.18
2022-09-25T11:29:54.639Z,54.87
2022-09-25T11:32:59.732Z,54.85
2022-09-25T11:35:57.842Z,53.35
2022-09-25T11:39:04.444Z,53.52
2022-09-25T11:41:53.341Z,53.88
2022-09-25T11:44:54.406Z,53.98
2022-09-25T11:47:28.353Z,54.59
2022-09-25T11:49:58.890Z,54.59
2022-09-25T11:52:28.725Z,54.25
2022-09-25T11:55:34.634Z,53.91
2022-09-25T11:58:14.783Z,54.15
2022-09-25T12:01:18.893Z,53.93
2022-09-25T12:03:46.421Z,51.88
2022-09-25T12:06:22.134Z,51.65
2022-09-25T12:09:10.253Z,51.27
2022-09-25T12:11:55.264Z,50.16
2022-09-25T12:14:46.925Z,49.73
2022-09-25T12:17:28.894Z,48.96
2022-09-25T12:20:33.883Z,48.90
2022-09-25T12:23:19.097Z,49.35
2022-09-25T12:25:55.066Z,49.50
2022-09-25T12:28:28.070Z,49.94
2022-09-25T12:31:07.556Z,50.64
2022-09-25T12:33:44.389Z,51.07
2022-09-25T12:36:20.842Z,52.48
2022-09-25T12:39:01.600Z,52.48
2022-09-25T12:41:51.551Z,51.30
2022-09-25T12:44:43.779Z,51.36
2022-09-25T12:48:00.167Z,51.29
2022-09-25T12:50:34.040Z,51.25
2022-09-25T12:53:24.981Z,51.75
2022-09-25T12:56:19.047Z,51.99
2022-09-25T12:59:05.716Z,52.00
2022-09-25T13:02:09.634Z,52.76
2022-09-25T13:04:42.558Z,53.44
2022-09-25T13:07:25.177Z,53.55
2022-09-25T13:09:52.373Z,54.28
2022-09-25T13:12:33.442Z,54.62
2022-09-25T13:15:08.826Z,55.45
2022-09-25T13:17:37.242Z,55.37
2022-09-25T13:20:28.874Z,53.96
2022-09-25T13:23:01.560Z,53.62
2022-09-25T13:25:30.161Z,52.59
2022-09-25T13:28:07.527Z,52.62
2022-09-25T13:30:35.109Z,51.51
2022-09-25T13:33:04.093Z,51.85
2022-09-25T13:35:32.988Z,51.79
2022-09-25T13:38:38.847Z,51.68
2022-09-25T13:41:12.020Z,51.26
2022-09-25T13:43:39.330Z,51.34
2022-09-25T13:46:21.480Z,51.52
2022-09-25T13:48:52.193Z,51.90
2022-09-25T13:51:21.895Z,51.93
2022-09-25T13:54:03.062Z,51.89
2022-09-25T13:56:42.022Z,52.88
2022-09-25T13:59:13.857Z,53.04
2022-09-25T14:01:41.576Z,52.74
2022-09-25T14:04:14.946Z,52.96
2022-09-25T14:06:44.792Z,52.99
2022-09-25T14:09:17.735Z,52.50
2022-09-25T14:11:55.773Z,52.58
2022-09-25T14:14:31.068Z,53.12
2022-09-25T14:16:59.783Z,53.27
2022-09-25T14:19:31.374Z,52.98
2022-09-25T14:22:00.372Z,53.07
2022-09-25T14:24:29.755Z,53.33
2022-09-25T14:27:02.169Z,53.54
2022-09-25T14:29:37.727Z,53.89
2022-09-25T14:32:50.198Z,54.06
2022-09-25T14:35:25.114Z,54.05
2022-09-25T14:37:54.885Z,54.44
2022-09-25T14:40:33.419Z,54.69
2022-09-25T14:43:23.944Z,54.53
2022-09-25T14:46:12.771Z,54.47
2022-09-25T14:49:02.365Z,54.56
2022-09-25T14:51:43.753Z,54.86
2022-09-25T14:54:16.281Z,55.39
2022-09-25T14:56:48.866Z,55.51
2022-09-25T14:59:24.648Z,55.40
2022-09-25T15:01:52.968Z,55.25
2022-09-25T15:04:34.647Z,54.96
2022-09-25T15:07:14.250Z,55.27
2022-09-25T15:09:49.543Z,55.03
2022-09-25T15:12:30.523Z,55.42
2022-09-25T15:15:12.144Z,55.99
2022-09-25T15:17:53.078Z,56.29
2022-09-25T15:20:23.100Z,56.58
2022-09-25T15:22:57.776Z,56.95
2022-09-25T15:25:32.997Z,57.25
2022-09-25T15:28:00.651Z,57.55
2022-09-25T15:30:28.417Z,57.87
2022-09-25T15:33:00.487Z,58.08
2022-09-25T15:35:29.471Z,58.25
2022-09-25T15:38:12.607Z,58.62
2022-09-25T15:40:41.569Z,59.08
2022-09-25T15:43:16.273Z,59.40
2022-09-25T15:46:33.390Z,59.74
2022-09-25T15:49:00.622Z,59.81
2022-09-25T15:51:30.572Z,60.05
2022-09-25T15:54:04.096Z,60.40
2022-09-25T15:56:44.386Z,60.62
2022-09-25T15:59:23.281Z,60.72
2022-09-25T16:02:09.947Z,60.86
2022-09-25T16:04:40.598Z,60.87
2022-09-25T16:07:40.855Z,61.41
2022-09-25T16:10:10.575Z,61.61
2022-09-25T16:12:41.943Z,61.77
2022-09-25T16:15:43.536Z,61.58
2022-09-25T16:18:13.440Z,61.72
2022-09-25T16:20:41.902Z,62.04
2022-09-25T16:23:31.362Z,62.23
2022-09-25T16:25:58.677Z,62.39
2022-09-25T16:28:29.242Z,62.46
2022-09-25T16:31:01.679Z,62.85
2022-09-25T16:33:34.802Z,63.08
2022-09-25T16:36:16.931Z,63.71
2022-09-25T16:39:10.116Z,64.15
2022-09-25T16:41:40.351Z,64.59
2022-09-25T16:44:32.648Z,65.00
2022-09-25T16:46:59.468Z,65.35
2022-09-25T16:49:26.677Z,65.66
2022-09-25T16:51:55.453Z,66.08
2022-09-25T16:54:30.822Z,66.24
2022-09-25T16:56:59.417Z,66.27
2022-09-25T16:59:28.339Z,66.32
2022-09-25T17:02:05.020Z,66.18
2022-09-25T17:04:35.840Z,66.86
2022-09-25T17:07:02.797Z,67.14
2022-09-25T17:09:31.440Z,67.43
2022-09-25T17:12:07.493Z,67.70
2022-09-25T17:14:35.857Z,67.90
2022-09-25T17:17:03.259Z,68.48
2022-09-25T17:19:30.032Z,68.74
2022-09-25T17:21:57.865Z,69.05
2022-09-25T17:24:27.182Z,69.51
2022-09-25T17:26:54.764Z,69.95
2022-09-25T17:29:22.763Z,70.27
2022-09-25T17:31:49.684Z,70.27
2022-09-25T17:34:18.850Z,70.83
2022-09-25T17:36:46.132Z,70.90
2022-09-25T17:39:13.299Z,71.29
2022-09-25T17:41:40.576Z,71.32
2022-09-25T17:44:12.285Z,71.40
2022-09-25T17:46:39.103Z,71.71
2022-09-25T17:49:07.097Z,71.88
2022-09-25T17:51:34.714Z,72.09
2022-09-25T17:54:02.571Z,72.03
2022-09-25T17:56:29.669Z,72.10
2022-09-25T17:58:57.907Z,72.17
2022-09-25T18:01:27.787Z,72.13
2022-09-25T18:03:59.836Z,72.18
2022-09-25T18:06:29.051Z,72.52
2022-09-25T18:08:56.705Z,72.63
2022-09-25T18:11:25.487Z,72.68
2022-09-25T18:14:01.203Z,72.76
2022-09-25T18:16:31.148Z,72.71
2022-09-25T18:19:17.412Z,72.46
2022-09-25T18:22:02.880Z,72.51
2022-09-25T18:24:30.319Z,72.51
2022-09-25T18:26:58.049Z,72.48
2022-09-25T18:29:25.049Z,72.60
2022-09-25T18:31:52.784Z,72.61
2022-09-25T18:34:21.796Z,72.63
2022-09-25T18:36:49.996Z,72.60
2022-09-25T18:39:20.491Z,72.89
2022-09-25T18:41:48.302Z,72.95
2022-09-25T18:44:17.802Z,72.92
2022-09-25T18:46:45.056Z,73.27
2022-09-25T18:49:11.888Z,73.45
2022-09-25T18:51:38.742Z,73.63
2022-09-25T18:54:06.164Z,73.80
2022-09-25T18:56:34.659Z,73.87
2022-09-25T18:59:05.496Z,73.61
2022-09-25T19:01:34.711Z,73.61
2022-09-25T19:04:02.038Z,73.48
2022-09-25T19:06:28.850Z,73.61
2022-09-25T19:08:57.848Z,73.77
2022-09-25T19:11:26.383Z,73.83
2022-09-25T19:13:53.720Z,73.94
2022-09-25T19:16:21.552Z,73.90
2022-09-25T19:18:50.189Z,73.88
2022-09-25T19:21:22.329Z,74.00
2022-09-25T19:23:49.917Z,74.06
2022-09-25T19:26:20.955Z,74.47
2022-09-25T19:28:48.896Z,74.64
2022-09-25T19:31:22.417Z,74.47
2022-09-25T19:33:50.789Z,74.44
2022-09-25T19:36:24.221Z,74.58
2022-09-25T19:38:51.297Z,74.55
2022-09-25T19:41:19.723Z,74.68
2022-09-25T19:43:46.715Z,74.66
2022-09-25T19:46:17.420Z,74.86
2022-09-25T19:48:46.086Z,75.06
2022-09-25T19:51:14.125Z,75.19
2022-09-25T19:53:42.087Z,75.56
2022-09-25T19:56:10.301Z,76.04
2022-09-25T19:58:40.907Z,76.34
2022-09-25T20:01:13.451Z,76.82
2022-09-25T20:03:41.994Z,77.40
2022-09-25T20:06:09.936Z,77.70
2022-09-25T20:08:37.771Z,78.04
2022-09-25T20:11:19.546Z,78.59
2022-09-25T20:13:47.865Z,79.40
2022-09-25T20:16:18.937Z,79.71
2022-09-25T20:18:50.559Z,80.20
2022-09-25T20:21:21.150Z,80.49
2022-09-25T20:23:58.903Z,80.43
2022-09-25T20:26:26.846Z,80.82
2022-09-25T20:29:01.817Z,81.12
2022-09-25T20:31:32.437Z,81.39
2022-09-25T20:33:59.451Z,81.42
2022-09-25T20:36:27.227Z,81.57
2022-09-25T20:38:56.121Z,81.78
2022-09-25T20:41:25.015Z,82.00
2022-09-25T20:43:54.973Z,82.19
2022-09-25T20:46:23.940Z,82.39
2022-09-25T20:48:52.781Z,82.46
2022-09-25T20:51:26.980Z,82.63
2022-09-25T20:53:57.159Z,82.86
2022-09-25T20:56:24.485Z,83.35
2022-09-25T20:58:53.457Z,83.44
2022-09-25T21:01:23.275Z,83.26
2022-09-25T21:03:52.010Z,83.43
2022-09-25T21:06:24.682Z,83.82
2022-09-25T21:08:53.613Z,84.10
2022-09-25T21:11:21.613Z,84.13
2022-09-25T21:13:53.613Z,84.59
2022-09-25T21:16:22.263Z,84.89
2022-09-25T21:19:00.777Z,85.01
2022-09-25T21:21:28.906Z,85.30
2022-09-25T21:23:57.549Z,85.74
2022-09-25T21:26:28.090Z,86.00
2022-09-25T21:28:58.141Z,86.25
2022-09-25T21:31:34.759Z,86.57
2022-09-25T21:34:02.249Z,86.87
2022-09-25T21:36:30.100Z,87.35
2022-09-25T21:38:56.986Z,87.76
2022-09-25T21:41:26.028Z,87.71
2022-09-25T21:44:02.607Z,87.88
2022-09-25T21:46:30.153Z,88.01
2022-09-25T21:48:59.833Z,88.42
2022-09-25T21:51:32.454Z,88.28
2022-09-25T21:54:01.198Z,88.98
2022-09-25T21:56:30.115Z,89.71
2022-09-25T21:58:58.077Z,89.43
2022-09-25T22:01:32.237Z,89.52
2022-09-25T22:03:59.975Z,89.68
2022-09-25T22:06:33.616Z,89.53
2022-09-25T22:09:05.234Z,89.46
2022-09-25T22:11:32.839Z,89.53
2022-09-25T22:14:00.235Z,89.73
2022-09-25T22:16:33.365Z,89.65
2022-09-25T22:19:10.827Z,89.35
2022-09-25T22:21:38.161Z,89.27
2022-09-25T22:24:06.096Z,89.68
2022-09-25T22:26:39.063Z,89.73
2022-09-25T22:29:07.026Z,89.85
2022-09-25T22:31:35.300Z,90.04
2022-09-25T22:34:05.854Z,90.15
2022-09-25T22:36:35.966Z,90.26
2022-09-25T22:39:04.546Z,89.86
2022-09-25T22:41:31.865Z,90.02
2022-09-25T22:44:00.935Z,90.45
2022-09-25T22:46:28.676Z,90.34
2022-09-25T22:48:56.226Z,90.56
2022-09-25T22:51:26.216Z,90.74
2022-09-25T22:53:54.507Z,90.91
2022-09-25T22:56:26.133Z,91.27
2022-09-25T22:58:59.595Z,91.25
2022-09-25T23:01:32.043Z,91.44
2022-09-25T23:04:03.544Z,91.21
2022-09-25T23:06:33.267Z,91.64
2022-09-25T23:09:03.395Z,92.30
2022-09-25T23:11:31.133Z,92.47
2022-09-25T23:14:06.358Z,92.40
2022-09-25T23:16:34.211Z,92.72
2022-09-25T23:19:01.600Z,93.02
2022-09-25T23:21:29.918Z,92.69
2022-09-25T23:24:17.589Z,92.59
2022-09-25T23:26:45.873Z,92.82
2022-09-25T23:29:15.682Z,93.10
2022-09-25T23:31:42.888Z,93.43
2022-09-25T23:34:10.595Z,93.40
2022-09-25T23:36:38.206Z,93.31
2022-09-25T23:39:06.439Z,93.65
2022-09-25T23:41:35.996Z,93.33
2022-09-25T23:44:05.409Z,93.50
2022-09-25T23:46:35.130Z,93.71
2022-09-25T23:49:02.613Z,93.64
2022-09-25T23:51:29.812Z,93.56
2022-09-25T23:53:58.116Z,93.51
2022-09-25T23:56:27.487Z,93.18
2022-09-25T23:58:56.612Z,93.29
